Time;durP1;ratioP1;P1;durP2;ratioP2;P2;SDS_P1;SDS_P2;PMS_P1;PMS_P2;Temp;Humidity;BMP_temperature;BMP_pressure;BME280_temperature;BME280_humidity;BME280_pressure;Samples;Min_cycle;Max_cycle;Signal;HPM_P1;HPM_P2
2022/12/31 00:01:42;;;;;;;5.13;2.80;;;;;;;-145.18;100.00;60484.78;5040937;28;20036;-61
2022/12/31 00:04:07;;;;;;;4.20;2.50;;;;;;;-145.18;100.00;60484.78;5041777;28;20060;-60
2022/12/31 00:06:34;;;;;;;6.43;3.13;;;;;;;-145.18;100.00;60484.78;5038382;28;20112;-61
2022/12/31 00:09:02;;;;;;;4.87;2.80;;;;;;;-145.18;100.00;60484.78;5034068;28;20033;-61
2022/12/31 00:11:29;;;;;;;6.83;2.80;;;;;;;-145.18;100.00;60484.78;5034847;28;20401;-62
2022/12/31 00:13:54;;;;;;;7.23;2.60;;;;;;;-145.18;100.00;60484.78;5036122;28;20037;-60
2022/12/31 00:16:32;;;;;;;5.73;2.50;;;;;;;-145.18;100.00;60484.78;5035364;28;20092;-61
2022/12/31 00:18:59;;;;;;;5.37;2.70;;;;;;;-145.18;100.00;60484.78;5037125;28;20036;-61
2022/12/31 00:21:26;;;;;;;4.57;2.50;;;;;;;-145.18;100.00;60484.78;5039608;28;20033;-61
2022/12/31 00:23:52;;;;;;;5.43;2.57;;;;;;;-145.18;100.00;60484.78;5031972;28;20063;-61
2022/12/31 00:26:20;;;;;;;5.07;2.50;;;;;;;-145.18;100.00;60484.78;5031247;28;20021;-61
2022/12/31 00:28:46;;;;;;;4.33;2.40;;;;;;;-145.18;100.00;60484.78;5032976;28;20037;-61
2022/12/31 00:31:16;;;;;;;5.10;2.47;;;;;;;-145.18;100.00;60484.78;5033263;28;20083;-62
2022/12/31 00:33:42;;;;;;;4.20;2.23;;;;;;;-145.18;100.00;60484.78;5037347;28;20035;-61
2022/12/31 00:36:20;;;;;;;4.70;2.17;;;;;;;-145.18;100.00;60484.78;5034517;28;20041;-61
2022/12/31 00:38:48;;;;;;;4.43;2.40;;;;;;;-145.18;100.00;60484.78;5041214;28;20041;-61
2022/12/31 00:41:14;;;;;;;6.20;2.20;;;;;;;-145.18;100.00;60484.78;5041414;28;20028;-61
2022/12/31 00:43:40;;;;;;;5.87;2.00;;;;;;;-145.18;100.00;60484.78;5035546;28;20321;-61
2022/12/31 00:46:07;;;;;;;3.90;2.27;;;;;;;-145.18;100.00;60484.78;5040590;28;20080;-61
2022/12/31 00:48:33;;;;;;;3.50;1.87;;;;;;;-145.18;100.00;60484.78;5037062;28;20033;-62
2022/12/31 00:51:00;;;;;;;5.33;3.00;;;;;;;-145.18;100.00;60484.78;5047138;28;20033;-61
2022/12/31 00:53:26;;;;;;;5.27;2.73;;;;;;;-145.18;100.00;60484.78;5043971;28;20025;-61
2022/12/31 00:55:51;;;;;;;4.50;2.70;;;;;;;-145.18;100.00;60484.78;5041547;28;20397;-61
2022/12/31 00:58:17;;;;;;;4.87;2.80;;;;;;;-145.18;100.00;60484.78;5049384;28;20029;-64
2022/12/31 01:00:42;;;;;;;6.67;3.07;;;;;;;-145.18;100.00;60484.78;5050351;28;20477;-64
2022/12/31 01:03:08;;;;;;;4.63;2.77;;;;;;;-145.18;100.00;60484.78;5037565;28;20048;-64
2022/12/31 01:05:35;;;;;;;5.70;3.43;;;;;;;-145.18;100.00;60484.78;5043033;28;20025;-64
2022/12/31 01:08:00;;;;;;;7.23;3.23;;;;;;;-145.18;100.00;60484.78;5041823;28;20521;-63
2022/12/31 01:13:10;;;;;;;7.07;3.43;;;;;;;-145.18;100.00;60484.78;5038824;28;20043;-64
2022/12/31 01:15:37;;;;;;;6.23;3.90;;;;;;;-145.18;100.00;60484.78;5036659;28;20408;-64
2022/12/31 01:18:05;;;;;;;5.57;3.53;;;;;;;-145.18;100.00;60484.78;5039678;28;20026;-64
2022/12/31 01:20:35;;;;;;;6.20;3.90;;;;;;;-145.18;100.00;60484.78;5044253;28;20079;-64
2022/12/31 01:23:00;;;;;;;6.80;2.90;;;;;;;-145.18;100.00;60484.78;5041235;28;20033;-64
2022/12/31 01:25:25;;;;;;;7.23;3.70;;;;;;;-145.18;100.00;60484.78;5045232;28;20030;-65
2022/12/31 01:27:51;;;;;;;6.83;4.03;;;;;;;-145.18;100.00;60484.78;5045794;28;20477;-65
2022/12/31 01:30:16;;;;;;;5.43;4.00;;;;;;;-145.18;100.00;60484.78;5040292;28;20124;-65
2022/12/31 01:32:42;;;;;;;6.80;4.50;;;;;;;-145.18;100.00;60484.78;5050272;28;20024;-65
2022/12/31 01:35:07;;;;;;;7.30;3.97;;;;;;;-145.18;100.00;60484.78;5047546;28;20056;-65
2022/12/31 01:37:33;;;;;;;8.73;4.37;;;;;;;-145.18;100.00;60484.78;5046826;28;20029;-65
2022/12/31 01:39:58;;;;;;;7.83;4.10;;;;;;;-145.18;100.00;60484.78;5047792;28;20033;-64
2022/12/31 01:42:23;;;;;;;6.40;4.90;;;;;;;-145.18;100.00;60484.78;5039636;28;20052;-64
2022/12/31 01:44:52;;;;;;;6.30;4.43;;;;;;;-145.18;100.00;60484.78;5038557;28;20108;-63
2022/12/31 01:47:26;;;;;;;6.30;4.30;;;;;;;-145.18;100.00;60484.78;5035973;28;20036;-64
2022/12/31 01:49:59;;;;;;;7.43;4.77;;;;;;;-145.18;100.00;60484.78;5040143;28;20083;-64
2022/12/31 01:52:30;;;;;;;6.57;4.87;;;;;;;-145.18;100.00;60484.78;5041368;28;20844;-64
2022/12/31 01:55:04;;;;;;;8.43;5.47;;;;;;;-145.18;100.00;60484.78;5043228;28;20031;-65
2022/12/31 01:57:30;;;;;;;6.37;4.70;;;;;;;-145.18;100.00;60484.78;5037807;28;20029;-64
2022/12/31 01:59:57;;;;;;;7.67;4.67;;;;;;;-145.18;100.00;60484.78;5037777;28;20032;-64
2022/12/31 02:02:23;;;;;;;6.57;3.83;;;;;;;-145.18;100.00;60484.78;5078865;22;20533;-76
2022/12/31 02:04:52;;;;;;;7.77;4.03;;;;;;;-145.18;100.00;60484.78;5059621;28;20041;-77
2022/12/31 02:07:17;;;;;;;6.50;4.40;;;;;;;-145.18;100.00;60484.78;5061504;28;20064;-77
2022/12/31 02:09:43;;;;;;;5.53;2.97;;;;;;;-145.18;100.00;60484.78;5058619;28;20139;-76
2022/12/31 02:12:09;;;;;;;5.37;2.70;;;;;;;-145.18;100.00;60484.78;5057175;28;20052;-74
2022/12/31 02:14:47;;;;;;;4.97;3.00;;;;;;;-145.18;100.00;60484.78;5053619;28;20029;-75
2022/12/31 02:17:46;;;;;;;6.83;2.90;;;;;;;-145.18;100.00;60484.78;5059787;28;20115;-76
2022/12/31 02:20:50;;;;;;;5.57;3.03;;;;;;;-145.18;100.00;60484.78;5052427;28;20139;-76
2022/12/31 02:23:49;;;;;;;5.77;2.90;;;;;;;-145.18;100.00;60484.78;5062061;28;20431;-74
2022/12/31 02:26:27;;;;;;;4.83;2.90;;;;;;;-145.18;100.00;60484.78;5062350;28;20090;-74
2022/12/31 02:29:29;;;;;;;5.27;2.50;;;;;;;-145.18;100.00;60484.78;5054089;28;20037;-74
2022/12/31 02:32:15;;;;;;;8.63;3.20;;;;;;;-145.18;100.00;60484.78;5062975;28;20028;-76
2022/12/31 02:35:05;;;;;;;4.47;3.13;;;;;;;-145.18;100.00;60484.78;5059094;28;20033;-76
2022/12/31 02:37:32;;;;;;;6.23;3.53;;;;;;;-145.18;100.00;60484.78;5035451;28;20403;-76
2022/12/31 02:39:59;;;;;;;6.43;3.80;;;;;;;-145.18;100.00;60484.78;5060283;28;20075;-78
2022/12/31 02:42:24;;;;;;;6.67;4.40;;;;;;;-145.18;100.00;60484.78;5053969;28;20044;-77
2022/12/31 02:44:49;;;;;;;8.33;4.90;;;;;;;-145.18;100.00;60484.78;5067525;28;20024;-77
2022/12/31 02:47:33;;;;;;;8.33;4.77;;;;;;;-145.18;100.00;60484.78;5060553;28;20032;-77
2022/12/31 02:50:26;;;;;;;8.07;5.27;;;;;;;-145.18;100.00;60484.78;5059030;28;20507;-78
2022/12/31 02:53:04;;;;;;;8.30;5.07;;;;;;;-145.18;100.00;60484.78;5051419;28;20025;-76
2022/12/31 02:55:40;;;;;;;7.17;4.60;;;;;;;-145.18;100.00;60484.78;5051477;28;20419;-77
2022/12/31 03:04:31;;;;;;;5.05;3.50;;;;;;;-145.18;100.00;60484.78;5032694;28;20084;-78
2022/12/31 03:07:00;;;;;;;6.43;3.80;;;;;;;-145.18;100.00;60484.78;5033329;28;20413;-75
2022/12/31 03:09:26;;;;;;;6.23;4.10;;;;;;;-145.18;100.00;60484.78;5039572;28;20021;-73
2022/12/31 03:14:35;;;;;;;6.27;3.10;;;;;;;-145.18;100.00;60484.78;5048659;28;20036;-74
2022/12/31 03:17:01;;;;;;;4.47;2.70;;;;;;;-145.18;100.00;60484.78;5045370;28;20029;-75
2022/12/31 03:22:26;;;;;;;5.20;3.10;;;;;;;-145.18;100.00;60484.78;5033053;28;20135;-74
2022/12/31 03:27:35;;;;;;;3.20;1.80;;;;;;;-145.18;100.00;60484.78;5040960;28;20079;-75
2022/12/31 03:30:01;;;;;;;3.60;1.87;;;;;;;-145.18;100.00;60484.78;5046747;28;20084;-72
2022/12/31 03:32:26;;;;;;;3.50;1.77;;;;;;;-145.18;100.00;60484.78;5046890;28;20368;-72
2022/12/31 03:34:51;;;;;;;3.57;2.00;;;;;;;-145.18;100.00;60484.78;5048859;28;20025;-73
2022/12/31 03:37:17;;;;;;;3.03;1.67;;;;;;;-145.18;100.00;60484.78;5045394;28;20021;-72
2022/12/31 03:39:42;;;;;;;2.87;1.70;;;;;;;-145.18;100.00;60484.78;5046228;28;20451;-73
2022/12/31 03:42:07;;;;;;;2.97;1.53;;;;;;;-145.18;100.00;60484.78;5032818;28;20022;-72
2022/12/31 03:44:33;;;;;;;3.40;1.70;;;;;;;-145.18;100.00;60484.78;5044811;28;20063;-72
2022/12/31 03:46:58;;;;;;;3.77;1.50;;;;;;;-145.18;100.00;60484.78;5038016;28;20033;-72
2022/12/31 03:49:23;;;;;;;3.43;1.70;;;;;;;-145.18;100.00;60484.78;5035902;28;20469;-72
2022/12/31 03:51:49;;;;;;;3.50;1.80;;;;;;;-145.18;100.00;60484.78;5039727;28;20091;-72
2022/12/31 03:54:14;;;;;;;3.13;1.57;;;;;;;-145.18;100.00;60484.78;5036608;28;20083;-72
2022/12/31 03:56:39;;;;;;;3.53;1.60;;;;;;;-145.18;100.00;60484.78;5042895;28;20055;-73
2022/12/31 03:59:05;;;;;;;3.13;1.40;;;;;;;-145.18;100.00;60484.78;5038689;28;20377;-73
2022/12/31 04:01:30;;;;;;;2.90;1.47;;;;;;;-145.18;100.00;60484.78;5042678;28;20036;-73
2022/12/31 04:03:56;;;;;;;3.37;1.30;;;;;;;-145.18;100.00;60484.78;5039469;28;20146;-72
2022/12/31 04:06:21;;;;;;;3.17;1.60;;;;;;;-145.18;100.00;60484.78;5047514;28;20075;-72
2022/12/31 04:08:46;;;;;;;2.70;1.60;;;;;;;-145.18;100.00;60484.78;5043118;28;20029;-72
2022/12/31 04:11:12;;;;;;;4.80;2.50;;;;;;;-145.18;100.00;60484.78;5041370;28;20085;-73
2022/12/31 04:13:37;;;;;;;5.30;2.17;;;;;;;-145.18;100.00;60484.78;5036754;28;20029;-73
2022/12/31 04:16:02;;;;;;;4.93;2.30;;;;;;;-145.18;100.00;60484.78;5045492;28;20045;-73
2022/12/31 04:18:28;;;;;;;4.47;2.40;;;;;;;-145.18;100.00;60484.78;5039426;28;20064;-73
2022/12/31 04:20:53;;;;;;;4.50;2.60;;;;;;;-145.18;100.00;60484.78;5038549;28;20484;-73
2022/12/31 04:23:18;;;;;;;4.67;2.93;;;;;;;-145.18;100.00;60484.78;5047040;28;20029;-73
2022/12/31 04:25:44;;;;;;;4.43;2.60;;;;;;;-145.18;100.00;60484.78;5049940;28;20083;-73
2022/12/31 04:28:09;;;;;;;5.07;2.70;;;;;;;-145.18;100.00;60484.78;5040198;28;20478;-73
2022/12/31 04:30:34;;;;;;;5.90;2.70;;;;;;;-145.18;100.00;60484.78;5039654;28;20044;-73
2022/12/31 04:33:00;;;;;;;5.10;2.50;;;;;;;-145.18;100.00;60484.78;5044949;28;20028;-73
2022/12/31 04:35:25;;;;;;;4.57;2.70;;;;;;;-145.18;100.00;60484.78;5034003;28;20017;-73
2022/12/31 04:37:50;;;;;;;6.30;2.80;;;;;;;-145.18;100.00;60484.78;5033171;28;20496;-73
2022/12/31 04:40:16;;;;;;;4.80;2.67;;;;;;;-145.18;100.00;60484.78;5039454;28;20029;-73
2022/12/31 04:42:41;;;;;;;5.37;2.47;;;;;;;-145.18;100.00;60484.78;5047501;28;20025;-73
2022/12/31 04:45:07;;;;;;;4.40;2.27;;;;;;;-145.18;100.00;60484.78;5041554;28;20544;-73
2022/12/31 04:47:32;;;;;;;5.43;2.30;;;;;;;-145.18;100.00;60484.78;5035202;28;20056;-73
2022/12/31 04:49:58;;;;;;;4.77;2.43;;;;;;;-145.18;100.00;60484.78;5039732;28;20052;-73
2022/12/31 04:52:23;;;;;;;4.40;2.40;;;;;;;-145.18;100.00;60484.78;5033931;28;20104;-72
2022/12/31 04:54:48;;;;;;;3.63;2.20;;;;;;;-145.18;100.00;60484.78;5036864;28;20018;-73
2022/12/31 04:57:14;;;;;;;3.77;2.20;;;;;;;-145.18;100.00;60484.78;5032982;28;20485;-73
2022/12/31 04:59:39;;;;;;;4.80;2.13;;;;;;;-145.18;100.00;60484.78;5039915;28;20420;-73
2022/12/31 05:02:05;;;;;;;4.90;2.10;;;;;;;-145.18;100.00;60484.78;5045547;28;20068;-73
2022/12/31 05:04:30;;;;;;;6.30;2.50;;;;;;;-145.18;100.00;60484.78;5044754;28;20933;-73
2022/12/31 05:06:55;;;;;;;4.60;2.80;;;;;;;-145.18;100.00;60484.78;5043327;28;20480;-73
2022/12/31 05:09:22;;;;;;;11.47;3.70;;;;;;;-145.18;100.00;60484.78;5036595;28;20032;-75
2022/12/31 05:11:48;;;;;;;5.70;2.90;;;;;;;-145.18;100.00;60484.78;5034100;28;20113;-75
2022/12/31 05:14:13;;;;;;;4.77;2.90;;;;;;;-145.18;100.00;60484.78;5037771;28;21646;-75
2022/12/31 05:16:39;;;;;;;6.10;3.20;;;;;;;-145.18;100.00;60484.78;5044419;28;20104;-75
2022/12/31 05:19:05;;;;;;;5.90;2.83;;;;;;;-145.18;100.00;60484.78;5034891;28;20033;-75
2022/12/31 05:21:30;;;;;;;4.67;2.83;;;;;;;-145.18;100.00;60484.78;5043421;28;20037;-75
2022/12/31 05:23:55;;;;;;;6.13;3.20;;;;;;;-145.18;100.00;60484.78;5041331;28;20083;-75
2022/12/31 05:26:21;;;;;;;7.37;4.03;;;;;;;-145.18;100.00;60484.78;5053425;28;20044;-75
2022/12/31 05:28:46;;;;;;;7.80;4.27;;;;;;;-145.18;100.00;60484.78;5057462;28;20029;-74
2022/12/31 05:31:12;;;;;;;7.47;5.03;;;;;;;-145.18;100.00;60484.78;5044201;28;20029;-74
2022/12/31 05:33:37;;;;;;;7.80;4.77;;;;;;;-145.18;100.00;60484.78;5039177;28;20079;-74
2022/12/31 05:36:03;;;;;;;6.93;4.50;;;;;;;-145.18;100.00;60484.78;5042764;28;20075;-75
2022/12/31 05:38:28;;;;;;;6.90;4.40;;;;;;;-145.18;100.00;60484.78;5048925;28;20029;-75
2022/12/31 05:41:06;;;;;;;7.00;4.20;;;;;;;-145.18;100.00;60484.78;5047163;28;20040;-75
2022/12/31 05:43:32;;;;;;;7.03;4.10;;;;;;;-145.18;100.00;60484.78;5035976;28;20029;-75
2022/12/31 05:46:03;;;;;;;6.83;4.23;;;;;;;-145.18;100.00;60484.78;5045101;28;20028;-75
2022/12/31 05:48:29;;;;;;;;;;;;;;;-145.18;100.00;60484.78;5036230;28;20029;-75
2022/12/31 05:50:54;;;;;;;7.17;4.50;;;;;;;-145.18;100.00;60484.78;5042805;28;19986;-75
2022/12/31 05:53:20;;;;;;;7.00;4.47;;;;;;;-145.18;100.00;60484.78;5039148;28;20025;-75
2022/12/31 05:55:46;;;;;;;9.60;5.03;;;;;;;-145.18;100.00;60484.78;5041508;28;20029;-75
2022/12/31 05:58:13;;;;;;;11.53;5.40;;;;;;;-145.18;100.00;60484.78;5043697;28;20021;-75
2022/12/31 06:00:38;;;;;;;9.43;5.37;;;;;;;-145.18;100.00;60484.78;5047188;28;20543;-75
2022/12/31 06:03:04;;;;;;;7.93;5.27;;;;;;;-145.18;100.00;60484.78;5039765;28;20021;-75
2022/12/31 06:05:29;;;;;;;8.17;4.90;;;;;;;-145.18;100.00;60484.78;5042623;28;20029;-75
2022/12/31 06:07:54;;;;;;;10.37;5.13;;;;;;;-145.18;100.00;60484.78;5032994;28;20096;-75
2022/12/31 06:10:20;;;;;;;8.43;5.50;;;;;;;-145.18;100.00;60484.78;5034610;28;20036;-75
2022/12/31 06:12:45;;;;;;;10.37;5.57;;;;;;;-145.18;100.00;60484.78;5037088;28;20025;-75
2022/12/31 06:15:10;;;;;;;9.70;5.90;;;;;;;-145.18;100.00;60484.78;5032924;28;20498;-76
2022/12/31 06:17:36;;;;;;;9.53;5.37;;;;;;;-145.18;100.00;60484.78;5037746;28;20378;-75
2022/12/31 06:20:01;;;;;;;10.27;5.70;;;;;;;-145.18;100.00;60484.78;5034413;28;20022;-75
2022/12/31 06:22:27;;;;;;;11.73;5.60;;;;;;;-145.18;100.00;60484.78;5036547;28;20025;-75
2022/12/31 06:24:52;;;;;;;9.37;5.13;;;;;;;-145.18;100.00;60484.78;5048342;28;20025;-75
2022/12/31 06:27:17;;;;;;;8.97;5.03;;;;;;;-145.18;100.00;60484.78;5047981;28;20448;-75
2022/12/31 06:29:44;;;;;;;8.93;5.10;;;;;;;-145.18;100.00;60484.78;5034325;28;20029;-75
2022/12/31 06:32:10;;;;;;;8.33;4.60;;;;;;;-145.18;100.00;60484.78;5038201;28;20026;-75
2022/12/31 06:34:35;;;;;;;10.90;5.30;;;;;;;-145.18;100.00;60484.78;5031160;28;20116;-75
2022/12/31 06:37:00;;;;;;;9.27;5.30;;;;;;;-145.18;100.00;60484.78;5042717;28;20037;-75
2022/12/31 06:39:26;;;;;;;10.17;5.90;;;;;;;-145.18;100.00;60484.78;5038501;28;20087;-75
2022/12/31 06:41:52;;;;;;;11.53;5.90;;;;;;;-145.18;100.00;60484.78;5046377;28;20025;-75
2022/12/31 06:44:17;;;;;;;11.70;6.07;;;;;;;-145.18;100.00;60484.78;5048170;28;20025;-75
2022/12/31 06:46:43;;;;;;;12.33;6.27;;;;;;;-145.18;100.00;60484.78;5036263;28;20113;-75
2022/12/31 06:49:08;;;;;;;12.47;6.83;;;;;;;-145.18;100.00;60484.78;5038212;28;20025;-75
2022/12/31 06:51:33;;;;;;;13.07;6.47;;;;;;;-145.18;100.00;60484.78;5050852;28;20079;-75
2022/12/31 06:53:59;;;;;;;11.67;6.33;;;;;;;-145.18;100.00;60484.78;5033006;28;20362;-75
2022/12/31 06:56:27;;;;;;;11.40;5.97;;;;;;;-145.18;100.00;60484.78;5042408;28;20021;-75
2022/12/31 06:58:53;;;;;;;13.90;6.73;;;;;;;-145.18;100.00;60484.78;5032418;28;20049;-75
2022/12/31 07:01:21;;;;;;;15.17;7.20;;;;;;;-145.18;100.00;60484.78;5032543;28;20481;-75
2022/12/31 07:04:24;;;;;;;12.70;6.60;;;;;;;-145.18;100.00;60484.78;5035933;28;20033;-75
2022/12/31 07:07:01;;;;;;;13.33;6.37;;;;;;;-145.18;100.00;60484.78;5041346;28;20053;-75
2022/12/31 07:09:36;;;;;;;10.93;6.03;;;;;;;-145.18;100.00;60484.78;5038297;28;20547;-75
2022/12/31 07:12:17;;;;;;;12.53;6.50;;;;;;;-145.18;100.00;60484.78;5030850;28;20033;-75
2022/12/31 07:14:51;;;;;;;12.57;6.33;;;;;;;-145.18;100.00;60484.78;5033761;28;20034;-75
2022/12/31 07:17:22;;;;;;;11.47;6.10;;;;;;;-145.18;100.00;60484.78;5033943;28;20061;-75
2022/12/31 07:20:12;;;;;;;12.23;5.93;;;;;;;-145.18;100.00;60484.78;5032250;28;20096;-75
2022/12/31 07:22:38;;;;;;;13.87;5.83;;;;;;;-145.18;100.00;60484.78;5036170;28;20033;-75
2022/12/31 07:25:05;;;;;;;9.00;5.10;;;;;;;-145.18;100.00;60484.78;5035939;28;20046;-73
2022/12/31 07:27:55;;;;;;;9.83;5.03;;;;;;;-145.18;100.00;60484.78;5044201;28;20065;-72
2022/12/31 07:30:30;;;;;;;9.93;4.73;;;;;;;-145.18;100.00;60484.78;5032230;28;20525;-73
2022/12/31 07:33:14;;;;;;;10.70;4.53;;;;;;;-145.18;100.00;60484.78;5032091;28;20033;-73
2022/12/31 07:35:58;;;;;;;8.87;4.70;;;;;;;-145.18;100.00;60484.78;5034006;28;20055;-73
2022/12/31 07:38:46;;;;;;;8.90;4.43;;;;;;;-145.18;100.00;60484.78;5039539;28;20025;-73
2022/12/31 07:41:20;;;;;;;7.77;4.60;;;;;;;-145.18;100.00;60484.78;5036234;28;20030;-72
2022/12/31 07:44:06;;;;;;;8.13;3.97;;;;;;;-145.18;100.00;60484.78;5042993;28;20032;-73
2022/12/31 07:46:56;;;;;;;9.63;4.20;;;;;;;-145.18;100.00;60484.78;5044912;28;20025;-73
2022/12/31 07:49:24;;;;;;;7.73;4.10;;;;;;;-145.18;100.00;60484.78;5038713;28;20465;-72
2022/12/31 07:51:50;;;;;;;10.17;4.27;;;;;;;-145.18;100.00;60484.78;5045695;28;20036;-73
2022/12/31 07:54:16;;;;;;;6.70;4.00;;;;;;;-145.18;100.00;60484.78;5041966;28;20171;-73
2022/12/31 07:56:42;;;;;;;7.37;4.67;;;;;;;-145.18;100.00;60484.78;5045343;28;20092;-73
2022/12/31 07:59:45;;;;;;;7.57;4.10;;;;;;;-145.18;100.00;60484.78;5041788;28;20032;-73
2022/12/31 08:02:48;;;;;;;7.43;3.80;;;;;;;-145.18;100.00;60484.78;5036056;28;20540;-73
2022/12/31 08:05:20;;;;;;;6.80;3.30;;;;;;;-145.18;100.00;60484.78;5043728;28;20116;-73
2022/12/31 08:08:20;;;;;;;5.95;3.05;;;;;;;-145.18;100.00;60484.78;5035626;28;20033;-73
2022/12/31 08:11:08;;;;;;;6.60;3.50;;;;;;;-145.18;100.00;60484.78;5047771;28;20388;-73
2022/12/31 08:13:33;;;;;;;6.50;3.60;;;;;;;-145.18;100.00;60484.78;5041039;28;20021;-73
2022/12/31 08:16:01;;;;;;;6.70;3.50;;;;;;;-145.18;100.00;60484.78;5040331;28;20479;-73
2022/12/31 08:18:26;;;;;;;5.87;3.57;;;;;;;-145.18;100.00;60484.78;5045853;28;20025;-73
2022/12/31 08:21:05;;;;;;;5.70;2.97;;;;;;;-145.18;100.00;60484.78;5042511;28;20041;-73
2022/12/31 08:23:51;;;;;;;6.63;2.90;;;;;;;-145.18;100.00;60484.78;5035586;28;20030;-73
2022/12/31 08:26:28;;;;;;;5.17;2.40;;;;;;;-145.18;100.00;60484.78;5037401;28;20037;-72
2022/12/31 08:29:30;;;;;;;6.67;3.43;;;;;;;-145.18;100.00;60484.78;5046943;28;20388;-73
2022/12/31 08:32:18;;;;;;;5.73;2.97;;;;;;;-145.18;100.00;60484.78;5040028;28;20051;-73
2022/12/31 08:34:50;;;;;;;5.30;2.90;;;;;;;-145.18;100.00;60484.78;5038561;28;20032;-73
2022/12/31 08:37:29;;;;;;;5.20;2.63;;;;;;;-145.18;100.00;60484.78;5040504;28;20487;-73
2022/12/31 08:40:07;;;;;;;4.03;2.33;;;;;;;-145.18;100.00;60484.78;5038336;28;20095;-73
2022/12/31 08:42:41;;;;;;;4.07;2.20;;;;;;;-145.18;100.00;60484.78;5038514;28;20387;-73
2022/12/31 08:45:21;;;;;;;4.77;2.40;;;;;;;-145.18;100.00;60484.78;5033596;28;20462;-73
2022/12/31 08:48:05;;;;;;;4.37;2.23;;;;;;;-145.18;100.00;60484.78;5041349;28;20159;-72
2022/12/31 08:50:31;;;;;;;2.73;1.50;;;;;;;-145.18;100.00;60484.78;5036682;28;20029;-72
2022/12/31 08:52:57;;;;;;;3.63;2.03;;;;;;;-145.18;100.00;60484.78;5037812;28;20024;-72
2022/12/31 08:55:23;;;;;;;3.27;1.87;;;;;;;-145.18;100.00;60484.78;5036918;28;20055;-72
2022/12/31 08:58:13;;;;;;;5.40;2.10;;;;;;;-145.18;100.00;60484.78;5038459;28;20018;-72
2022/12/31 09:00:40;;;;;;;2.70;1.40;;;;;;;-145.18;100.00;60484.78;5042467;28;20029;-72
2022/12/31 09:03:24;;;;;;;2.63;1.30;;;;;;;-145.18;100.00;60484.78;5054214;28;20048;-72
2022/12/31 09:06:05;;;;;;;3.77;1.40;;;;;;;-145.18;100.00;60484.78;5039514;28;20125;-72
2022/12/31 09:08:54;;;;;;;4.20;1.67;;;;;;;-145.18;100.00;60484.78;5037785;28;20020;-73
2022/12/31 09:11:51;;;;;;;4.50;2.10;;;;;;;-145.18;100.00;60484.78;5044841;28;20100;-72
2022/12/31 09:14:26;;;;;;;6.30;2.00;;;;;;;-145.18;100.00;60484.78;5044251;28;20027;-72
2022/12/31 09:17:34;;;;;;;4.43;2.00;;;;;;;-145.18;100.00;60484.78;5044320;28;20022;-75
2022/12/31 09:19:59;;;;;;;4.20;2.03;;;;;;;-145.18;100.00;60484.78;5023639;28;20495;-75
2022/12/31 09:22:25;;;;;;;4.13;2.03;;;;;;;-145.18;100.00;60484.78;5036486;28;20036;-75
2022/12/31 09:24:51;;;;;;;3.90;2.10;;;;;;;-145.18;100.00;60484.78;5041736;28;20566;-74
2022/12/31 09:27:58;;;;;;;4.50;2.00;;;;;;;-145.18;100.00;60484.78;5045665;28;20468;-75
2022/12/31 09:30:27;;;;;;;3.63;1.97;;;;;;;-145.18;100.00;60484.78;5005205;28;20106;-74
2022/12/31 09:33:11;;;;;;;5.47;2.07;;;;;;;-145.18;100.00;60484.78;4998627;28;20038;-75
2022/12/31 09:35:41;;;;;;;7.17;2.23;;;;;;;-145.18;100.00;60484.78;5023298;28;20038;-75
2022/12/31 09:38:16;;;;;;;4.43;2.50;;;;;;;-145.18;100.00;60484.78;5035106;28;20376;-75
2022/12/31 09:40:44;;;;;;;3.03;1.67;;;;;;;-145.18;100.00;60484.78;5037096;28;20025;-73
2022/12/31 09:43:15;;;;;;;3.90;1.50;;;;;;;-145.18;100.00;60484.78;5040562;28;20104;-74
2022/12/31 09:46:20;;;;;;;2.67;1.10;;;;;;;-145.18;100.00;60484.78;5050873;28;20033;-75
2022/12/31 09:48:53;;;;;;;2.20;1.13;;;;;;;-145.18;100.00;60484.78;5040796;28;20037;-75
2022/12/31 09:51:26;;;;;;;3.17;1.10;;;;;;;-145.18;100.00;60484.78;5041809;28;20140;-75
2022/12/31 09:54:16;;;;;;;1.40;0.87;;;;;;;-145.18;100.00;60484.78;5050804;28;20032;-75
2022/12/31 09:56:49;;;;;;;3.37;0.90;;;;;;;-145.18;100.00;60484.78;5042842;28;20036;-75
2022/12/31 09:59:28;;;;;;;2.27;0.90;;;;;;;-145.18;100.00;60484.78;5054795;28;20347;-75
2022/12/31 10:02:14;;;;;;;1.40;0.67;;;;;;;-145.18;100.00;60484.78;5059638;28;20484;-74
2022/12/31 10:04:42;;;;;;;1.43;0.80;;;;;;;-145.18;100.00;60484.78;5045668;28;20055;-73
2022/12/31 10:07:41;;;;;;;1.53;0.70;;;;;;;-145.18;100.00;60484.78;5045458;28;20483;-74
2022/12/31 10:10:42;;;;;;;1.93;0.90;;;;;;;-145.18;100.00;60484.78;5039653;28;20028;-73
2022/12/31 10:13:29;;;;;;;1.20;0.70;;;;;;;-145.18;100.00;60484.78;4984868;28;20346;-75
2022/12/31 10:16:09;;;;;;;1.67;0.77;;;;;;;-145.18;100.00;60484.78;4977753;28;20133;-75
2022/12/31 10:18:42;;;;;;;1.93;1.00;;;;;;;-145.18;100.00;60484.78;4989978;28;20087;-73
2022/12/31 10:21:22;;;;;;;2.47;1.10;;;;;;;-145.18;100.00;60484.78;4985460;28;20659;-74
2022/12/31 10:24:09;;;;;;;1.33;0.80;;;;;;;-145.18;100.00;60484.78;4989003;28;20030;-74
2022/12/31 10:26:43;;;;;;;1.90;1.00;;;;;;;-145.18;100.00;60484.78;4989659;28;20045;-75
2022/12/31 10:29:21;;;;;;;2.20;0.97;;;;;;;-145.18;100.00;60484.78;4991470;28;20043;-75
2022/12/31 10:32:02;;;;;;;2.17;0.93;;;;;;;-145.18;100.00;60484.78;4980445;28;20039;-74
2022/12/31 10:34:51;;;;;;;1.63;0.90;;;;;;;-145.18;100.00;60484.78;4979692;28;20117;-74
2022/12/31 10:37:18;;;;;;;3.17;1.10;;;;;;;-145.18;100.00;60484.78;4992352;28;20026;-73
2022/12/31 10:40:02;;;;;;;1.17;0.77;;;;;;;-145.18;100.00;60484.78;4988591;28;20030;-74
2022/12/31 10:42:58;;;;;;;2.13;0.83;;;;;;;-145.18;100.00;60484.78;4987898;28;20080;-74
2022/12/31 10:46:11;;;;;;;1.97;0.77;;;;;;;-145.18;100.00;60484.78;4989076;28;20847;-74
2022/12/31 10:49:30;;;;;;;3.90;0.90;;;;;;;-145.18;100.00;60484.78;5019911;28;20045;-74
2022/12/31 10:52:18;;;;;;;2.00;0.77;;;;;;;-145.18;100.00;60484.78;4981885;28;20038;-75
2022/12/31 10:55:08;;;;;;;2.97;1.13;;;;;;;-145.18;100.00;60484.78;5053633;28;20041;-75
2022/12/31 10:58:08;;;;;;;2.00;1.00;;;;;;;-145.18;100.00;60484.78;5071031;28;20029;-75
2022/12/31 11:00:56;;;;;;;2.83;1.30;;;;;;;-145.18;100.00;60484.78;5013577;28;20037;-74
2022/12/31 11:03:49;;;;;;;2.53;1.30;;;;;;;-145.18;100.00;60484.78;5051615;28;20033;-74
2022/12/31 11:06:47;;;;;;;2.13;1.00;;;;;;;-145.18;100.00;60484.78;5036553;28;20033;-75
2022/12/31 11:09:37;;;;;;;2.03;1.00;;;;;;;-145.18;100.00;60484.78;5022207;28;20068;-74
2022/12/31 11:12:47;;;;;;;1.53;0.70;;;;;;;-145.18;100.00;60484.78;5055118;28;20023;-74
2022/12/31 11:15:21;;;;;;;3.23;1.00;;;;;;;-145.18;100.00;60484.78;5048695;28;20021;-73
2022/12/31 11:18:08;;;;;;;1.87;0.90;;;;;;;-145.18;100.00;60484.78;5051704;28;20108;-73
2022/12/31 11:20:49;;;;;;;1.57;0.80;;;;;;;-145.18;100.00;60484.78;5042423;28;20020;-73
2022/12/31 11:23:43;;;;;;;1.27;0.63;;;;;;;-145.18;100.00;60484.78;5037654;28;20049;-74
2022/12/31 11:26:17;;;;;;;2.30;0.60;;;;;;;-145.18;100.00;60484.78;5038086;28;20076;-73
2022/12/31 11:29:20;;;;;;;2.67;0.80;;;;;;;-145.18;100.00;60484.78;5058167;28;20036;-75
2022/12/31 11:32:10;;;;;;;80.67;2.83;;;;;;;-145.18;100.00;60484.78;4976555;28;20038;-72
2022/12/31 11:34:47;;;;;;;2.10;0.70;;;;;;;-145.18;100.00;60484.78;4986847;28;20034;-72
2022/12/31 11:37:15;;;;;;;5.28;0.90;;;;;;;-145.18;100.00;60484.78;4994112;28;20034;-72
2022/12/31 11:40:18;;;;;;;1.97;0.90;;;;;;;-145.18;100.00;60484.78;4994042;28;20093;-71
2022/12/31 11:42:49;;;;;;;2.28;0.98;;;;;;;-145.18;100.00;60484.78;4996367;28;20026;-72
2022/12/31 11:45:36;;;;;;;1.13;0.77;;;;;;;-145.18;100.00;60484.78;4992369;28;20029;-71
2022/12/31 11:48:36;;;;;;;3.33;0.93;;;;;;;-145.18;100.00;60484.78;4991679;28;20026;-72
2022/12/31 11:51:29;;;;;;;3.13;0.77;;;;;;;-145.18;100.00;60484.78;4990546;28;20532;-71
2022/12/31 11:54:16;;;;;;;3.88;1.00;;;;;;;-145.18;100.00;60484.78;4990625;28;20117;-72
2022/12/31 11:57:15;;;;;;;2.80;0.90;;;;;;;-145.18;100.00;60484.78;4986740;28;20118;-72